Time;durP1;ratioP1;P1;durP2;ratioP2;P2;SDS_P1;SDS_P2;PMS_P1;PMS_P2;Temp;Humidity;BMP_temperature;BMP_pressure;BME280_temperature;BME280_humidity;BME280_pressure;Samples;Min_cycle;Max_cycle;Signal;HPM_P1;HPM_P2
2023/05/03 00:00:35;;;;;;;5.70;2.53;;;6.60;99.90;;;;;;5058056;28;20048;-59
2023/05/03 00:03:03;;;;;;;13.55;3.55;;;6.70;99.90;;;;;;5059269;28;20056;-59
2023/05/03 00:05:30;;;;;;;6.68;2.40;;;6.80;99.90;;;;;;5060070;28;20045;-59
2023/05/03 00:07:55;;;;;;;9.20;2.75;;;6.50;99.90;;;;;;5058629;28;20100;-58
2023/05/03 00:10:21;;;;;;;6.88;2.47;;;6.70;99.90;;;;;;5060267;28;20492;-58
2023/05/03 00:12:47;;;;;;;8.68;2.53;;;6.70;99.90;;;;;;5058878;28;20128;-59
2023/05/03 00:15:13;;;;;;;6.78;2.65;;;6.70;99.90;;;;;;5059514;28;20041;-59
2023/05/03 00:17:38;;;;;;;9.02;2.60;;;6.60;99.90;;;;;;5059424;28;20083;-59
2023/05/03 00:20:05;;;;;;;6.88;2.50;;;6.80;99.90;;;;;;5059063;28;20083;-59
2023/05/03 00:22:31;;;;;;;7.43;2.60;;;6.90;99.90;;;;;;5059623;28;20435;-58
2023/05/03 00:24:58;;;;;;;7.20;2.67;;;6.80;99.90;;;;;;5058511;28;20056;-59
2023/05/03 00:27:24;;;;;;;5.40;2.40;;;6.70;99.90;;;;;;5060270;28;20041;-59
2023/05/03 00:29:51;;;;;;;9.25;3.05;;;6.80;99.90;;;;;;5058320;28;20108;-59
2023/05/03 00:32:21;;;;;;;7.38;2.78;;;6.90;99.90;;;;;;5058307;28;20048;-59
2023/05/03 00:34:55;;;;;;;7.85;2.58;;;6.90;99.90;;;;;;5058858;28;20044;-58
2023/05/03 00:37:21;;;;;;;8.48;2.45;;;6.80;99.90;;;;;;5058462;28;20052;-59
2023/05/03 00:39:47;;;;;;;8.13;2.30;;;6.90;99.90;;;;;;5059396;28;20033;-58
2023/05/03 00:42:12;;;;;;;6.63;2.58;;;7.00;99.90;;;;;;5058076;28;20051;-59
2023/05/03 00:44:38;;;;;;;5.00;2.40;;;7.00;99.90;;;;;;5059955;28;20083;-59
2023/05/03 00:50:38;;;;;;;5.97;2.80;;;6.90;99.90;;;;;;5058291;28;20031;-59
2023/05/03 00:57:09;;;;;;;9.52;2.63;;;7.00;99.90;;;;;;5056547;28;20066;-59
2023/05/03 00:59:36;;;;;;;4.43;2.10;;;7.00;99.90;;;;;;5053919;28;20076;-59
2023/05/03 01:02:03;;;;;;;7.30;2.63;;;7.00;99.90;;;;;;5059016;28;20040;-59
2023/05/03 01:04:29;;;;;;;5.88;2.50;;;7.10;99.90;;;;;;5058048;28;20559;-59
2023/05/03 01:07:24;;;;;;;8.32;3.15;;;7.10;99.90;;;;;;5058547;28;20048;-59
2023/05/03 01:10:18;;;;;;;6.65;2.38;;;7.00;99.90;;;;;;5059494;28;20052;-59
2023/05/03 01:13:19;;;;;;;8.15;2.75;;;6.90;99.90;;;;;;5057224;28;20500;-59
2023/05/03 01:16:10;;;;;;;7.30;2.55;;;6.90;99.90;;;;;;5040229;28;20049;-58
2023/05/03 01:18:43;;;;;;;7.63;2.58;;;6.90;99.90;;;;;;5058605;28;20048;-58
2023/05/03 01:21:12;;;;;;;;;;;6.90;99.90;;;;;;5040170;28;20049;-59
2023/05/03 01:24:02;;;;;;;5.95;2.63;;;7.00;99.90;;;;;;5059286;28;19944;-59
2023/05/03 01:26:28;;;;;;;7.10;2.30;;;6.90;99.90;;;;;;5057355;28;20041;-59
2023/05/03 01:28:54;;;;;;;6.20;2.65;;;7.00;99.90;;;;;;5056247;28;20053;-59
2023/05/03 01:31:32;;;;;;;6.03;2.50;;;7.00;99.90;;;;;;5058512;28;20041;-59
2023/05/03 01:34:15;;;;;;;7.47;2.85;;;7.00;99.90;;;;;;5057249;28;20045;-58
2023/05/03 01:36:43;;;;;;;5.75;2.60;;;7.10;99.90;;;;;;5058382;28;20045;-59
2023/05/03 01:39:24;;;;;;;6.20;2.65;;;7.10;99.90;;;;;;5058470;28;20051;-59
2023/05/03 01:41:51;;;;;;;7.65;2.65;;;7.00;99.90;;;;;;5057910;28;20055;-59
2023/05/03 01:44:19;;;;;;;5.97;2.63;;;6.90;99.90;;;;;;5059232;28;20049;-58
2023/05/03 01:46:46;;;;;;;9.60;3.00;;;7.00;99.90;;;;;;5058996;28;20041;-58
2023/05/03 01:49:12;;;;;;;5.85;2.75;;;6.80;99.90;;;;;;5069535;28;20045;-60
2023/05/03 01:51:37;;;;;;;9.13;2.90;;;6.90;99.90;;;;;;5057986;28;20574;-58
2023/05/03 01:54:04;;;;;;;8.32;3.28;;;6.90;99.90;;;;;;5058346;28;20037;-59
2023/05/03 01:56:32;;;;;;;6.90;2.50;;;7.00;99.90;;;;;;5058272;28;20124;-59
2023/05/03 01:58:58;;;;;;;6.45;2.47;;;7.00;99.90;;;;;;5039074;28;20104;-58
2023/05/03 02:01:24;;;;;;;9.88;2.72;;;7.10;99.90;;;;;;5058824;28;20041;-59
2023/05/03 02:03:49;;;;;;;6.78;2.35;;;7.20;99.90;;;;;;5056841;28;20119;-58
2023/05/03 02:06:15;;;;;;;7.55;2.22;;;7.20;99.90;;;;;;5058972;28;20041;-58
2023/05/03 02:08:41;;;;;;;6.00;2.30;;;7.30;99.90;;;;;;5057570;28;20132;-59
2023/05/03 02:11:06;;;;;;;5.47;2.00;;;7.40;99.90;;;;;;5058099;28;20053;-58
2023/05/03 02:13:32;;;;;;;5.38;2.60;;;7.30;99.90;;;;;;5057847;28;20056;-58
2023/05/03 02:15:58;;;;;;;5.72;2.38;;;7.20;99.90;;;;;;5039430;28;20045;-59
2023/05/03 02:18:23;;;;;;;7.07;2.58;;;7.20;99.90;;;;;;5058305;28;20033;-59
2023/05/03 02:20:49;;;;;;;8.23;2.40;;;7.20;99.90;;;;;;5057096;28;20056;-59
2023/05/03 02:23:15;;;;;;;5.88;2.30;;;7.30;99.90;;;;;;5059089;28;20041;-58
2023/05/03 02:25:41;;;;;;;6.68;2.00;;;7.40;99.90;;;;;;5056456;28;20390;-59
2023/05/03 02:28:06;;;;;;;6.75;2.25;;;7.40;99.90;;;;;;5057546;28;20051;-58
2023/05/03 02:30:33;;;;;;;6.18;2.30;;;7.50;99.90;;;;;;5040054;28;20080;-59
2023/05/03 02:32:59;;;;;;;5.65;2.58;;;7.50;99.90;;;;;;5060913;28;20033;-59
2023/05/03 02:35:25;;;;;;;5.38;2.42;;;7.60;99.90;;;;;;5061653;28;20103;-59
2023/05/03 02:37:50;;;;;;;6.40;2.40;;;7.60;99.90;;;;;;5060162;28;20469;-58
2023/05/03 02:40:16;;;;;;;5.65;2.40;;;7.60;99.90;;;;;;5061960;28;20084;-59
2023/05/03 02:42:42;;;;;;;6.32;2.40;;;7.60;99.90;;;;;;5060204;28;20037;-58
2023/05/03 02:45:08;;;;;;;8.38;2.72;;;7.60;99.90;;;;;;5061612;28;20091;-59
2023/05/03 02:47:34;;;;;;;7.03;2.63;;;7.50;99.90;;;;;;5060513;28;20037;-59
2023/05/03 02:49:59;;;;;;;5.93;2.60;;;7.50;99.90;;;;;;5060745;28;20056;-59
2023/05/03 02:52:25;;;;;;;4.43;1.95;;;7.50;99.90;;;;;;5061420;28;20041;-59
2023/05/03 02:54:51;;;;;;;5.30;2.72;;;7.40;99.90;;;;;;5060064;28;20099;-59
2023/05/03 02:57:16;;;;;;;5.57;2.35;;;7.60;99.90;;;;;;5061680;28;20036;-59
2023/05/03 02:59:42;;;;;;;6.20;2.22;;;7.50;99.90;;;;;;5097860;28;20056;-58
2023/05/03 03:02:08;;;;;;;5.75;2.40;;;7.50;99.90;;;;;;5101382;28;20032;-59
2023/05/03 03:04:33;;;;;;;6.35;2.75;;;7.50;99.90;;;;;;5082774;28;20043;-60
2023/05/03 03:06:59;;;;;;;4.65;2.20;;;7.50;99.90;;;;;;5082642;28;20040;-60
2023/05/03 03:09:25;;;;;;;6.18;2.30;;;7.50;99.90;;;;;;5101252;28;20047;-60
2023/05/03 03:11:51;;;;;;;5.38;2.30;;;7.50;99.90;;;;;;5100463;28;20043;-60
2023/05/03 03:14:17;;;;;;;7.80;2.38;;;7.50;99.90;;;;;;5101809;28;20051;-59
2023/05/03 03:16:45;;;;;;;7.88;2.70;;;7.50;99.90;;;;;;5099967;28;20048;-60
2023/05/03 03:19:10;;;;;;;5.32;2.45;;;7.50;99.90;;;;;;5101582;28;20052;-59
2023/05/03 03:21:36;;;;;;;6.53;2.58;;;7.50;99.90;;;;;;5100545;28;20051;-59
2023/05/03 03:24:03;;;;;;;8.45;3.58;;;7.50;99.90;;;;;;5100655;28;20074;-58
2023/05/03 03:26:28;;;;;;;8.40;2.40;;;7.40;99.90;;;;;;5101088;28;20072;-59
2023/05/03 03:28:54;;;;;;;8.50;2.58;;;7.40;99.90;;;;;;5099922;28;20056;-59
2023/05/03 03:31:21;;;;;;;7.03;2.45;;;7.40;99.90;;;;;;5101384;28;20074;-59
2023/05/03 03:33:48;;;;;;;7.90;2.17;;;7.30;99.90;;;;;;5099482;28;20075;-59
2023/05/03 03:36:14;;;;;;;6.38;2.40;;;7.30;99.90;;;;;;5101463;28;20047;-56
2023/05/03 03:38:40;;;;;;;7.97;2.28;;;7.30;99.90;;;;;;5100014;28;20040;-58
2023/05/03 03:41:06;;;;;;;5.45;1.90;;;7.30;99.90;;;;;;5100390;28;20105;-59
2023/05/03 03:43:32;;;;;;;7.07;2.15;;;7.30;99.90;;;;;;5100271;28;20047;-59
2023/05/03 03:45:58;;;;;;;6.50;2.22;;;7.30;99.90;;;;;;5099458;28;20044;-59
2023/05/03 03:48:23;;;;;;;6.47;2.13;;;7.20;99.90;;;;;;5100739;28;20058;-59
2023/05/03 03:50:49;;;;;;;4.70;2.20;;;7.20;99.90;;;;;;5099180;28;20043;-59
2023/05/03 03:53:15;;;;;;;8.07;2.03;;;7.20;99.90;;;;;;5101097;28;20032;-59
2023/05/03 03:55:41;;;;;;;5.05;2.20;;;7.10;99.90;;;;;;5099549;28;20044;-59
2023/05/03 03:58:07;;;;;;;5.90;2.30;;;7.10;99.90;;;;;;5100348;28;20060;-59
2023/05/03 04:00:35;;;;;;;6.57;2.35;;;7.00;99.90;;;;;;5099300;28;20051;-59
2023/05/03 04:03:01;;;;;;;5.53;2.70;;;7.00;99.90;;;;;;5099629;28;20052;-59
2023/05/03 04:05:26;;;;;;;6.85;2.63;;;6.80;99.90;;;;;;5100380;28;20036;-59
2023/05/03 04:07:52;;;;;;;6.20;2.53;;;6.80;99.90;;;;;;5080809;28;20501;-59
2023/05/03 04:10:18;;;;;;;6.75;2.45;;;6.80;99.90;;;;;;5100777;28;20046;-58
2023/05/03 04:12:43;;;;;;;6.38;2.38;;;6.80;99.90;;;;;;5099179;28;20040;-59
2023/05/03 04:15:10;;;;;;;9.23;2.40;;;6.90;99.90;;;;;;5099850;28;20044;-59
2023/05/03 04:17:36;;;;;;;6.55;2.38;;;6.90;99.90;;;;;;5099857;28;20040;-58
2023/05/03 04:20:09;;;;;;;7.80;2.45;;;6.90;99.90;;;;;;5099300;28;20452;-59
2023/05/03 04:22:37;;;;;;;5.35;2.53;;;7.00;99.90;;;;;;5100509;28;20476;-56
2023/05/03 04:25:04;;;;;;;5.30;2.13;;;7.00;99.90;;;;;;5098867;28;20118;-59
2023/05/03 04:27:29;;;;;;;5.88;1.88;;;6.90;99.90;;;;;;5100466;28;20172;-59
2023/05/03 04:29:55;;;;;;;6.03;2.17;;;7.00;99.90;;;;;;5098591;28;20044;-59
2023/05/03 04:32:22;;;;;;;5.15;1.70;;;7.10;99.90;;;;;;5099811;28;20040;-59
2023/05/03 04:34:51;;;;;;;5.50;2.03;;;7.10;99.90;;;;;;5081075;28;20523;-58
2023/05/03 04:37:20;;;;;;;6.55;1.85;;;7.10;99.90;;;;;;5099107;28;20065;-59
2023/05/03 04:39:45;;;;;;;3.47;1.48;;;7.30;99.90;;;;;;5100160;28;20093;-59
2023/05/03 04:42:14;;;;;;;7.00;2.00;;;7.40;99.90;;;;;;5098327;28;20044;-59
2023/05/03 04:44:43;;;;;;;5.25;1.85;;;7.40;99.90;;;;;;5100218;28;20510;-59
2023/05/03 04:47:09;;;;;;;5.13;1.80;;;7.40;99.90;;;;;;5098862;28;20455;-59
2023/05/03 04:49:35;;;;;;;4.75;1.60;;;7.40;99.90;;;;;;5099311;28;20073;-60
2023/05/03 04:52:01;;;;;;;4.93;1.50;;;7.50;99.90;;;;;;5099368;28;20044;-59
2023/05/03 04:54:26;;;;;;;4.95;1.58;;;7.50;99.90;;;;;;5097845;28;20564;-59
2023/05/03 04:56:53;;;;;;;7.70;2.05;;;7.50;99.90;;;;;;5099018;28;20381;-59
2023/05/03 04:59:20;;;;;;;4.65;1.95;;;7.50;99.90;;;;;;5097501;28;20059;-59
2023/05/03 05:01:46;;;;;;;5.43;1.50;;;7.60;99.90;;;;;;5100165;28;20051;-59
2023/05/03 05:04:11;;;;;;;6.50;1.90;;;7.60;99.90;;;;;;5098187;28;20036;-59
2023/05/03 05:06:37;;;;;;;5.18;1.75;;;7.70;99.90;;;;;;5098994;28;20036;-59
2023/05/03 05:09:06;;;;;;;3.67;1.52;;;7.70;99.90;;;;;;5099048;28;20044;-61
2023/05/03 05:11:32;;;;;;;6.13;2.40;;;7.80;99.90;;;;;;5096835;28;20052;-61
2023/05/03 05:13:57;;;;;;;4.72;1.70;;;7.70;99.90;;;;;;5095761;28;20040;-61
2023/05/03 05:16:23;;;;;;;7.82;1.52;;;7.70;99.90;;;;;;5093898;28;20464;-60
2023/05/03 05:18:49;;;;;;;5.53;1.52;;;7.80;99.90;;;;;;5096150;28;20040;-61
2023/05/03 05:21:14;;;;;;;4.55;1.13;;;7.90;99.90;;;;;;5094533;28;20126;-59
2023/05/03 05:23:40;;;;;;;6.28;1.30;;;8.00;99.90;;;;;;5095131;28;20656;-59
2023/05/03 05:26:06;;;;;;;5.57;1.70;;;8.00;99.90;;;;;;5094775;28;20051;-59
2023/05/03 05:28:32;;;;;;;6.00;1.67;;;7.90;99.90;;;;;;5094416;28;20059;-59
2023/05/03 05:30:57;;;;;;;6.07;1.83;;;7.90;99.90;;;;;;5095240;28;20133;-59
2023/05/03 05:33:23;;;;;;;6.95;1.90;;;8.10;99.90;;;;;;5076006;28;20037;-59
2023/05/03 05:35:49;;;;;;;6.57;2.05;;;8.10;99.90;;;;;;5077402;28;20503;-59
2023/05/03 05:38:16;;;;;;;5.22;1.70;;;8.10;99.90;;;;;;5093996;28;20036;-59
2023/05/03 05:40:42;;;;;;;6.75;1.70;;;8.20;99.90;;;;;;5095217;28;20185;-59
2023/05/03 05:43:08;;;;;;;6.65;2.00;;;8.20;99.90;;;;;;5076494;28;20219;-59
2023/05/03 05:45:34;;;;;;;5.97;2.13;;;8.20;99.90;;;;;;5094560;28;20123;-60
2023/05/03 05:48:00;;;;;;;5.13;1.70;;;8.20;99.90;;;;;;5094775;28;20060;-59
2023/05/03 05:50:26;;;;;;;5.70;1.70;;;8.30;99.90;;;;;;5094262;28;20044;-59
2023/05/03 05:52:52;;;;;;;4.10;1.35;;;8.30;99.90;;;;;;5095557;28;20109;-59
2023/05/03 05:55:18;;;;;;;3.83;1.25;;;8.40;99.90;;;;;;5093711;28;20525;-58
2023/05/03 05:57:43;;;;;;;5.20;1.30;;;8.40;99.90;;;;;;5091976;28;20072;-59
2023/05/03 06:00:13;;;;;;;5.72;1.33;;;8.50;99.90;;;;;;5073541;28;20056;-59
2023/05/03 06:02:43;;;;;;;4.72;1.40;;;8.50;99.90;;;;;;5074224;28;20095;-58
2023/05/03 06:05:10;;;;;;;5.28;1.77;;;8.50;99.90;;;;;;5076231;28;20153;-59
2023/05/03 06:07:35;;;;;;;5.05;1.45;;;8.50;99.90;;;;;;5059404;28;20116;-59
2023/05/03 06:10:02;;;;;;;6.60;1.55;;;8.60;99.90;;;;;;5079540;28;20068;-59
2023/05/03 06:12:29;;;;;;;6.88;1.92;;;8.50;99.90;;;;;;5076883;28;20053;-59
2023/05/03 06:14:54;;;;;;;4.80;1.73;;;8.30;99.90;;;;;;5078832;28;20048;-59
2023/05/03 06:17:22;;;;;;;6.32;2.00;;;8.30;99.90;;;;;;5077874;28;20044;-59
2023/05/03 06:19:48;;;;;;;6.25;1.98;;;8.50;99.90;;;;;;5076741;28;20064;-59
2023/05/03 06:22:15;;;;;;;4.78;1.90;;;8.50;99.90;;;;;;5059099;28;20048;-61
2023/05/03 06:24:41;;;;;;;5.07;2.10;;;8.60;99.90;;;;;;5076205;28;20791;-59
2023/05/03 06:27:06;;;;;;;5.68;1.95;;;8.60;99.90;;;;;;5078396;28;20058;-59
2023/05/03 06:29:32;;;;;;;4.90;2.13;;;8.70;99.90;;;;;;5076493;28;20116;-59
2023/05/03 06:31:57;;;;;;;5.03;1.67;;;8.70;99.90;;;;;;5078083;28;20082;-61
2023/05/03 06:34:24;;;;;;;5.20;1.52;;;8.70;99.90;;;;;;5077161;28;20075;-61
2023/05/03 06:36:50;;;;;;;5.00;1.35;;;8.80;99.90;;;;;;5076788;28;20099;-59
2023/05/03 06:39:16;;;;;;;5.47;1.80;;;8.90;99.90;;;;;;5059451;28;20052;-59
2023/05/03 06:41:42;;;;;;;5.85;1.45;;;8.90;99.90;;;;;;5076841;28;20106;-59
2023/05/03 06:44:08;;;;;;;3.90;1.20;;;9.00;99.90;;;;;;5082636;28;20032;-59
2023/05/03 06:46:34;;;;;;;5.03;1.30;;;9.10;99.90;;;;;;5083096;28;20033;-59
2023/05/03 06:49:00;;;;;;;6.38;1.50;;;9.00;99.90;;;;;;5067917;28;20046;-59
2023/05/03 06:51:28;;;;;;;5.18;1.40;;;9.10;99.90;;;;;;5086926;28;20507;-59
2023/05/03 06:53:59;;;;;;;4.53;1.75;;;9.20;99.90;;;;;;5083236;28;20103;-60
2023/05/03 06:56:25;;;;;;;5.57;1.10;;;9.20;99.90;;;;;;5060584;28;20113;-59
2023/05/03 06:58:52;;;;;;;3.85;1.38;;;9.10;99.90;;;;;;5085121;28;20048;-60
2023/05/03 07:01:19;;;;;;;5.13;1.30;;;9.10;99.90;;;;;;5064809;28;20044;-57
2023/05/03 07:03:45;;;;;;;6.32;1.50;;;9.10;99.90;;;;;;5058950;28;20056;-60
2023/05/03 07:06:11;;;;;;;5.05;1.33;;;9.20;99.90;;;;;;5077555;28;20072;-60
2023/05/03 07:08:37;;;;;;;4.55;1.30;;;9.40;99.90;;;;;;5076622;28;20044;-60
2023/05/03 07:11:03;;;;;;;7.22;1.50;;;9.40;99.90;;;;;;5076784;28;20044;-58
2023/05/03 07:13:29;;;;;;;4.50;1.30;;;9.40;99.90;;;;;;5076586;28;20071;-60
2023/05/03 07:15:55;;;;;;;5.00;1.20;;;9.40;99.90;;;;;;5076335;28;20040;-60
2023/05/03 07:18:21;;;;;;;4.88;1.20;;;9.30;99.90;;;;;;5058535;28;20048;-60
2023/05/03 07:20:47;;;;;;;5.68;1.25;;;9.50;99.90;;;;;;5075555;28;20068;-60
2023/05/03 07:23:14;;;;;;;4.95;1.20;;;9.50;99.90;;;;;;5077058;28;20048;-60
2023/05/03 07:25:41;;;;;;;5.13;1.40;;;9.50;99.90;;;;;;5075451;28;20066;-60
2023/05/03 07:28:07;;;;;;;6.03;1.20;;;9.60;99.90;;;;;;5076597;28;20048;-60
2023/05/03 07:30:33;;;;;;;5.25;1.38;;;9.60;99.90;;;;;;5076132;28;20090;-61
2023/05/03 07:32:58;;;;;;;9.52;1.73;;;9.60;99.90;;;;;;5075796;28;20239;-60
2023/05/03 07:35:26;;;;;;;6.43;1.60;;;9.70;99.90;;;;;;5076553;28;20422;-61
2023/05/03 07:37:52;;;;;;;4.97;1.40;;;9.70;99.90;;;;;;5075300;28;20179;-61
2023/05/03 07:40:18;;;;;;;2.83;1.33;;;9.70;99.90;;;;;;5077178;28;20071;-57
2023/05/03 07:42:43;;;;;;;6.07;1.38;;;9.80;99.90;;;;;;5075449;28;20052;-60
2023/05/03 07:45:09;;;;;;;8.05;1.50;;;9.90;99.90;;;;;;5076284;28;20051;-60
2023/05/03 07:47:38;;;;;;;5.95;1.40;;;9.90;99.90;;;;;;5084761;28;20040;-61
2023/05/03 07:50:05;;;;;;;3.83;1.20;;;9.90;99.90;;;;;;5079051;28;20487;-60
2023/05/03 07:52:38;;;;;;;4.60;1.30;;;10.00;99.90;;;;;;5076511;28;20047;-60
2023/05/03 07:55:05;;;;;;;6.20;1.35;;;10.00;99.90;;;;;;5075014;28;20079;-58
2023/05/03 07:57:31;;;;;;;3.33;1.23;;;10.10;99.90;;;;;;5076495;28;20048;-60
2023/05/03 07:59:57;;;;;;;5.53;1.60;;;10.20;99.90;;;;;;5074429;28;20053;-60
2023/05/03 08:02:23;;;;;;;6.07;1.65;;;10.30;99.90;;;;;;5075977;28;20044;-60
2023/05/03 08:04:49;;;;;;;3.65;1.25;;;10.20;99.90;;;;;;5075800;28;20049;-60
2023/05/03 08:07:16;;;;;;;6.00;1.33;;;10.30;99.90;;;;;;5075085;28;20049;-60
2023/05/03 08:09:41;;;;;;;6.50;1.60;;;10.30;99.90;;;;;;5075800;28;20053;-60
2023/05/03 08:12:07;;;;;;;7.35;1.42;;;10.30;99.90;;;;;;5073778;28;20055;-60
2023/05/03 08:14:33;;;;;;;4.38;1.20;;;10.10;99.90;;;;;;5076533;28;20108;-60
2023/05/03 08:16:59;;;;;;;5.88;1.50;;;10.10;99.90;;;;;;5074709;28;20110;-60
2023/05/03 08:19:25;;;;;;;5.03;1.17;;;10.20;99.90;;;;;;5076033;28;20126;-60
2023/05/03 08:21:53;;;;;;;5.55;1.20;;;10.20;99.90;;;;;;5078288;28;20070;-60
2023/05/03 08:24:19;;;;;;;5.65;1.40;;;10.30;99.90;;;;;;5078613;28;20547;-60
2023/05/03 08:26:45;;;;;;;5.43;1.42;;;10.10;99.90;;;;;;5079656;28;20040;-60
2023/05/03 08:29:10;;;;;;;4.22;1.40;;;10.00;99.90;;;;;;5077745;28;20044;-59
2023/05/03 08:31:36;;;;;;;3.92;1.20;;;10.10;99.90;;;;;;5080182;28;20114;-60
2023/05/03 08:34:03;;;;;;;5.32;1.40;;;10.20;99.90;;;;;;5078405;28;20044;-59
2023/05/03 08:36:30;;;;;;;6.82;1.27;;;10.10;99.90;;;;;;5079334;28;20048;-59
2023/05/03 08:38:56;;;;;;;6.47;1.60;;;10.10;99.90;;;;;;5078822;28;20055;-60
2023/05/03 08:41:28;;;;;;;3.95;1.40;;;10.20;99.90;;;;;;5078451;28;20048;-60
2023/05/03 08:43:55;;;;;;;6.63;1.60;;;10.20;99.90;;;;;;5079307;28;20203;-58
2023/05/03 08:46:20;;;;;;;3.22;1.35;;;10.30;99.90;;;;;;5077903;28;20036;-58
2023/05/03 08:48:54;;;;;;;4.18;1.20;;;10.30;99.90;;;;;;5092691;28;20102;-60
2023/05/03 08:51:21;;;;;;;5.88;1.38;;;10.20;99.90;;;;;;5078390;28;20116;-60
2023/05/03 08:53:47;;;;;;;5.43;1.45;;;10.20;99.90;;;;;;5079023;28;20052;-59
2023/05/03 08:56:26;;;;;;;3.65;1.38;;;10.30;99.90;;;;;;5078562;28;20123;-60
2023/05/03 08:58:53;;;;;;;8.70;1.67;;;10.20;99.90;;;;;;5077786;28;20053;-60
2023/05/03 09:01:19;;;;;;;4.80;1.13;;;10.30;99.90;;;;;;5079590;28;20082;-59
2023/05/03 09:03:50;;;;;;;4.60;1.40;;;10.30;99.90;;;;;;5077855;28;20141;-59
2023/05/03 09:06:26;;;;;;;7.80;1.60;;;10.20;99.90;;;;;;5044603;28;20041;-60
2023/05/03 09:08:53;;;;;;;4.47;1.58;;;10.30;99.90;;;;;;5078324;28;20126;-59
2023/05/03 09:11:28;;;;;;;5.47;1.50;;;10.40;99.90;;;;;;5077928;28;20085;-59
2023/05/03 09:14:06;;;;;;;2.90;1.30;;;10.40;99.90;;;;;;5079165;28;20123;-59
2023/05/03 09:16:32;;;;;;;4.05;1.40;;;10.40;99.90;;;;;;5077387;28;20059;-59
2023/05/03 09:19:00;;;;;;;5.75;1.30;;;10.40;99.90;;;;;;5079148;28;20049;-59
2023/05/03 09:21:26;;;;;;;5.28;1.60;;;10.30;99.90;;;;;;5060071;28;20044;-60
2023/05/03 09:23:52;;;;;;;3.70;1.10;;;10.40;99.90;;;;;;5078619;28;20045;-58
2023/05/03 09:26:32;;;;;;;4.90;1.27;;;10.50;99.90;;;;;;5078700;28;20044;-60
2023/05/03 09:29:00;;;;;;;5.93;1.40;;;10.50;99.90;;;;;;5077365;28;20056;-59
2023/05/03 09:31:32;;;;;;;5.28;1.50;;;10.50;99.90;;;;;;5079473;28;20408;-59
2023/05/03 09:33:58;;;;;;;7.10;1.60;;;10.60;99.90;;;;;;5077527;28;20408;-59
2023/05/03 09:36:24;;;;;;;7.07;1.60;;;10.70;99.90;;;;;;5078602;28;20064;-59
2023/05/03 09:38:51;;;;;;;4.32;1.45;;;10.60;99.90;;;;;;5060448;28;20106;-60
2023/05/03 09:41:27;;;;;;;3.42;1.38;;;10.50;99.90;;;;;;5081321;28;20134;-60
2023/05/03 09:43:55;;;;;;;3.70;1.13;;;10.60;99.90;;;;;;5082914;28;20346;-60
2023/05/03 09:46:23;;;;;;;4.88;1.50;;;10.70;99.90;;;;;;5081136;28;20040;-59
2023/05/03 09:48:51;;;;;;;4.00;1.60;;;10.70;99.90;;;;;;5096100;28;20104;-59
2023/05/03 09:51:17;;;;;;;3.33;1.30;;;10.60;99.90;;;;;;5081951;28;20592;-59
2023/05/03 09:53:43;;;;;;;6.07;1.80;;;10.80;99.90;;;;;;5064259;28;20084;-60
2023/05/03 09:56:12;;;;;;;4.07;1.30;;;10.90;99.90;;;;;;5082190;28;20040;-59
2023/05/03 09:58:39;;;;;;;3.17;1.42;;;10.70;99.90;;;;;;5081152;28;20052;-59
2023/05/03 10:01:05;;;;;;;4.70;1.40;;;10.80;99.90;;;;;;5082607;28;20092;-59
2023/05/03 10:03:40;;;;;;;4.47;1.40;;;10.70;99.90;;;;;;5080945;28;20036;-60
2023/05/03 10:06:16;;;;;;;5.20;1.50;;;10.90;99.90;;;;;;5082660;28;20056;-60
2023/05/03 10:09:07;;;;;;;4.18;1.27;;;11.00;99.90;;;;;;5081795;28;20041;-59
2023/05/03 10:11:35;;;;;;;3.80;1.45;;;10.90;99.90;;;;;;5053394;28;20052;-60
2023/05/03 10:14:01;;;;;;;4.57;1.30;;;11.10;99.90;;;;;;5082585;28;20048;-60
2023/05/03 10:16:37;;;;;;;5.63;1.40;;;11.20;99.90;;;;;;5080811;28;20044;-60
2023/05/03 10:19:13;;;;;;;4.55;1.60;;;11.20;99.90;;;;;;5064132;28;20535;-59
2023/05/03 10:22:07;;;;;;;4.38;1.20;;;11.10;99.90;;;;;;5089095;28;20651;-60
2023/05/03 10:24:53;;;;;;;4.10;1.42;;;10.80;99.90;;;;;;5081201;28;20106;-59
2023/05/03 10:27:20;;;;;;;3.60;1.17;;;11.10;99.90;;;;;;5064459;28;20056;-58
2023/05/03 10:29:50;;;;;;;5.82;1.40;;;11.20;99.90;;;;;;5079786;28;20040;-57
2023/05/03 10:32:43;;;;;;;4.25;1.45;;;11.20;99.90;;;;;;5080813;28;20100;-59
2023/05/03 10:35:12;;;;;;;4.00;1.20;;;11.30;99.90;;;;;;5081137;28;20107;-60
2023/05/03 10:37:41;;;;;;;4.78;1.60;;;11.20;99.90;;;;;;5080190;28;20087;-60
2023/05/03 10:40:10;;;;;;;5.18;1.30;;;11.30;99.90;;;;;;5080729;28;20275;-59
2023/05/03 10:42:37;;;;;;;3.88;1.63;;;11.20;99.90;;;;;;5083391;28;20047;-59
2023/05/03 10:45:07;;;;;;;4.72;1.50;;;11.30;99.90;;;;;;5090254;28;20096;-59
2023/05/03 10:47:33;;;;;;;4.65;1.50;;;11.40;99.90;;;;;;5094619;28;20096;-60
2023/05/03 10:50:14;;;;;;;5.78;1.60;;;11.40;99.90;;;;;;5087677;28;20111;-59
2023/05/03 10:52:40;;;;;;;4.85;1.60;;;11.20;99.90;;;;;;5083080;28;20049;-59
2023/05/03 10:55:09;;;;;;;6.18;1.48;;;11.50;99.90;;;;;;5079519;28;20048;-59
2023/05/03 10:57:37;;;;;;;6.03;1.40;;;11.50;99.90;;;;;;5062195;28;20052;-60
2023/05/03 11:00:07;;;;;;;5.50;1.60;;;11.70;99.90;;;;;;5048275;28;20052;-59
2023/05/03 11:02:41;;;;;;;5.22;1.40;;;11.80;99.90;;;;;;5060356;28;20033;-60
2023/05/03 11:05:09;;;;;;;5.15;1.40;;;11.70;99.90;;;;;;5060991;28;20049;-60
2023/05/03 11:07:34;;;;;;;4.43;1.65;;;11.80;99.90;;;;;;5059657;28;20037;-59
2023/05/03 11:10:00;;;;;;;6.30;1.77;;;11.90;99.90;;;;;;5061573;28;20047;-59
2023/05/03 11:12:26;;;;;;;6.40;1.50;;;11.70;99.90;;;;;;5041482;28;20049;-60
2023/05/03 11:14:51;;;;;;;7.47;1.35;;;11.70;99.90;;;;;;5061142;28;20045;-60
2023/05/03 11:17:17;;;;;;;4.72;1.20;;;11.70;99.90;;;;;;5042069;28;20504;-60
2023/05/03 11:19:43;;;;;;;5.25;1.20;;;11.70;99.90;;;;;;5042120;28;20552;-60
2023/05/03 11:22:11;;;;;;;3.10;1.10;;;11.80;99.90;;;;;;5060391;28;20040;-59
2023/05/03 11:24:37;;;;;;;7.07;1.80;;;12.00;99.90;;;;;;5059648;28;20049;-59
2023/05/03 11:27:03;;;;;;;5.00;1.50;;;12.10;99.90;;;;;;5061284;28;20131;-59
2023/05/03 11:29:28;;;;;;;3.45;1.33;;;12.10;99.90;;;;;;5041268;28;20577;-59
2023/05/03 11:31:54;;;;;;;3.50;1.27;;;12.20;99.90;;;;;;5060697;28;20045;-59
2023/05/03 11:34:20;;;;;;;4.38;1.45;;;12.20;99.90;;;;;;5060119;28;20487;-59
2023/05/03 11:36:46;;;;;;;5.88;1.80;;;12.00;99.90;;;;;;5059578;28;20096;-59
2023/05/03 11:39:13;;;;;;;7.47;1.50;;;12.20;99.90;;;;;;5041000;28;20041;-59
2023/05/03 11:41:40;;;;;;;7.45;1.52;;;11.80;99.90;;;;;;5040190;28;20045;-59
2023/05/03 11:44:06;;;;;;;4.22;1.40;;;11.90;99.90;;;;;;5060887;28;20087;-59
2023/05/03 11:46:35;;;;;;;3.60;1.30;;;12.20;99.90;;;;;;5059041;28;20036;-59
2023/05/03 11:49:02;;;;;;;5.63;1.52;;;12.50;99.90;;;;;;5060705;28;20048;-59
2023/05/03 11:51:28;;;;;;;7.60;1.73;;;12.70;99.90;;;;;;5059608;28;20289;-59
2023/05/03 11:53:54;;;;;;;3.22;1.20;;;12.80;99.90;;;;;;5059717;28;20045;-60
2023/05/03 11:56:21;;;;;;;6.13;1.67;;;13.00;99.90;;;;;;5059957;28;20044;-59
2023/05/03 11:58:58;;;;;;;6.93;1.80;;;13.00;99.90;;;;;;5061811;28;20297;-60
2023/05/03 12:01:25;;;;;;;7.07;1.80;;;13.00;99.90;;;;;;5080761;28;20052;-61
2023/05/03 12:04:01;;;;;;;7.13;1.80;;;12.60;99.90;;;;;;5078495;28;20040;-61
2023/05/03 12:06:32;;;;;;;4.43;1.35;;;12.90;99.90;;;;;;5079878;28;20121;-60
2023/05/03 12:08:59;;;;;;;5.30;1.65;;;12.50;99.90;;;;;;5079836;28;20566;-60
2023/05/03 12:11:25;;;;;;;5.93;1.70;;;12.60;99.90;;;;;;5078931;28;20048;-60
2023/05/03 12:14:01;;;;;;;5.88;2.40;;;12.60;99.90;;;;;;5080018;28;20087;-61
2023/05/03 12:16:27;;;;;;;4.90;1.65;;;12.40;99.90;;;;;;5078168;28;20510;-59
2023/05/03 12:19:01;;;;;;;7.53;1.75;;;12.50;99.90;;;;;;5080057;28;20052;-60
2023/05/03 12:21:46;;;;;;;4.55;1.50;;;12.80;99.90;;;;;;5099248;28;20068;-58
2023/05/03 12:24:16;;;;;;;6.88;1.70;;;12.80;99.90;;;;;;5099345;28;20036;-58
2023/05/03 12:26:44;;;;;;;4.68;1.52;;;12.80;99.90;;;;;;5100023;28;20477;-59
2023/05/03 12:29:11;;;;;;;5.25;1.42;;;12.90;99.90;;;;;;5098419;28;20497;-59
2023/05/03 12:31:37;;;;;;;7.03;1.75;;;12.60;99.90;;;;;;5100251;28;20499;-60
2023/05/03 12:34:03;;;;;;;4.32;1.42;;;12.70;99.90;;;;;;5098856;28;20083;-59
2023/05/03 12:36:31;;;;;;;2.53;1.15;;;12.90;99.90;;;;;;5099498;28;20039;-60
2023/05/03 12:38:57;;;;;;;4.93;1.50;;;12.90;99.90;;;;;;5099464;28;20044;-59
2023/05/03 12:41:26;;;;;;;4.65;1.50;;;13.00;99.90;;;;;;5098523;28;20108;-60
2023/05/03 12:43:52;;;;;;;5.35;1.58;;;13.10;99.90;;;;;;5081965;28;20043;-60
2023/05/03 12:46:18;;;;;;;4.55;1.67;;;13.40;99.90;;;;;;5096686;28;20036;-58
2023/05/03 12:48:44;;;;;;;6.93;1.75;;;13.10;99.90;;;;;;5079828;28;20052;-58
2023/05/03 12:51:10;;;;;;;5.32;1.55;;;13.40;99.90;;;;;;5078318;28;20045;-61
2023/05/03 12:53:35;;;;;;;6.03;1.70;;;13.40;99.90;;;;;;5079366;28;20044;-60
2023/05/03 12:56:01;;;;;;;5.00;1.60;;;13.30;99.90;;;;;;5078564;28;20468;-59
2023/05/03 12:58:27;;;;;;;5.00;1.55;;;13.20;99.90;;;;;;5078041;28;20124;-60
2023/05/03 13:00:53;;;;;;;5.57;1.42;;;13.10;99.60;;;;;;5079379;28;20071;-59
2023/05/03 13:03:19;;;;;;;6.43;1.38;;;13.40;99.90;;;;;;5077798;28;20043;-59